Seaspan Chiwan — VRBH3 — position and weather

sailwx.info

Track history (hours):
 
Tides and Currents Weather Stations Pressure Air Temp Water Temp Dewpoint Dewpoint Depression Visibility Wind Speed Wind Dir Waves Ship Positions

Seaspan Chiwan

Last reported at 2017-Mar-19 14:33 UTC. Time now 2017-Mar-26 05:24 UTC.
Position N 27°36' W 115°33'.

Length 260 m; draft 10.6 m.

Type: Cargo ship. MMSI: 477014500.

Date/timePositionNaut miles runAvg speedWind from/ knotsBaromVisibWave heightAir tempDewpointWater temp
2017-Mar-19 14:33N 27°36' W 115°33'4915.4
2017-Mar-19 11:23N 28°17' W 116°05'1415.5
2017-Mar-19 10:29N 28°28' W 116°13'1515.7
2017-Mar-19 09:33N 28°40' W 116°23'1615.7
2017-Mar-19 08:33N 28°53' W 116°33'1515.6
2017-Mar-19 07:33N 29°07' W 116°40'1615.7
2017-Mar-19 06:33N 29°23' W 116°44'1515.5
2017-Mar-19 05:33N 29°38' W 116°48'1615.8
2017-Mar-19 04:33N 29°53' W 116°53'1615.9
2017-Mar-19 03:33N 30°08' W 116°57'1515.5
2017-Mar-19 02:34N 30°23' W 117°02'1615.7
2017-Mar-19 01:33N 30°39' W 117°06'3315.8
2017-Mar-18 23:26N 31°11' W 117°15'1415.6
2017-Mar-18 22:33N 31°25' W 117°19'1615.6
2017-Mar-18 21:34N 31°40' W 117°23'1615.8
2017-Mar-18 20:33N 31°55' W 117°27'1615.7
2017-Mar-18 19:33N 32°10' W 117°32'1514.9
2017-Mar-18 18:34N 32°25' W 117°36'1414.2
2017-Mar-18 17:33N 32°37' W 117°44'1515.5
2017-Mar-18 16:33N 32°51' W 117°53'1515.1
2017-Mar-18 15:33N 33°05' W 118°00'1211.7
2017-Mar-18 14:33N 33°16' W 118°05'1211.5
2017-Mar-18 13:33N 33°26' W 118°10'1211.7
2017-Mar-18 12:33N 33°37' W 118°14'7 6.5
2017-Mar-18 11:33N 33°44' W 118°15'0 0.3
2017-Mar-18 10:31N 33°44' W 118°15'0 0.0
2017-Mar-18 09:31N 33°44' W 118°15'0 0.0
2017-Mar-18 08:31N 33°44' W 118°15'0 0.0
2017-Mar-18 07:31N 33°44' W 118°15'0 0.0
2017-Mar-18 06:31N 33°44' W 118°15'0 0.0
2017-Mar-18 05:31N 33°44' W 118°15'0 0.0
2017-Mar-18 04:31N 33°44' W 118°15'0 0.0
2017-Mar-18 03:28N 33°44' W 118°15'0 0.1
2017-Mar-18 02:31N 33°44' W 118°15'0 0.0
2017-Mar-18 01:31N 33°44' W 118°15'0 0.0
2017-Mar-18 00:31N 33°44' W 118°15'0 0.0
2017-Mar-17 23:31N 33°44' W 118°15'0 0.0
2017-Mar-17 22:28N 33°44' W 118°15'0 0.0
2017-Mar-17 21:31N 33°44' W 118°15'0 0.0
2017-Mar-17 20:31N 33°44' W 118°15'0 0.4
2017-Mar-17 19:34N 33°44' W 118°15'5 5.4
2017-Mar-17 18:33N 33°39' W 118°13'9 9.1
2017-Mar-17 17:33N 33°38' W 118°24'1211.7
2017-Mar-17 16:33N 33°43' W 118°37'1111.5
2017-Mar-17 15:33N 33°49' W 118°48'1211.6
2017-Mar-17 14:33N 33°55' W 119°00'1211.5
2017-Mar-17 13:33N 34°01' W 119°13'1211.6
2017-Mar-17 12:33N 34°04' W 119°26'1211.7
2017-Mar-17 11:33N 34°08' W 119°39'1211.9
2017-Mar-17 10:33N 34°11' W 119°53'1211.6
2017-Mar-17 09:33N 34°14' W 120°07'1211.6
2017-Mar-17 08:33N 34°17' W 120°20'1211.7
2017-Mar-17 07:33N 34°20' W 120°34'1211.6
2017-Mar-17 06:33N 34°23' W 120°48'1212.0
2017-Mar-17 05:33N 34°29' W 120°60'1414.0
2017-Mar-17 04:33N 34°41' W 121°09'1414.2
2017-Mar-17 03:34N 34°53' W 121°19'1414.4
2017-Mar-17 02:34N 35°05' W 121°28'1414.4
2017-Mar-17 01:33N 35°17' W 121°38'1514.6
2017-Mar-17 00:34N 35°29' W 121°49'1414.0
2017-Mar-16 23:32N 35°41' W 121°58'1713.4
2017-Mar-16 22:16N 35°56' W 122°07'1014.4
2017-Mar-16 21:33N 36°06' W 122°12'1514.9
2017-Mar-16 20:33N 36°19' W 122°20'1514.8
2017-Mar-16 19:33N 36°33' W 122°26'1514.7
2017-Mar-16 18:33N 36°47' W 122°33'1413.8
2017-Mar-16 17:33N 37°00' W 122°39'1312.7
2017-Mar-16 16:34N 37°12' W 122°44'1312.7
2017-Mar-16 15:34N 37°25' W 122°44'1312.7
2017-Mar-16 14:34N 37°37' W 122°44'1110.7
2017-Mar-16 13:33N 37°46' W 122°36'1312.7
2017-Mar-16 12:34N 37°48' W 122°21'1 1.4
2017-Mar-16 11:33N 37°48' W 122°19'0 0.0
2017-Mar-16 10:33N 37°48' W 122°19'0 0.0
2017-Mar-16 09:33N 37°48' W 122°19'0 0.0
2017-Mar-16 08:33N 37°48' W 122°19'0 0.0
2017-Mar-16 07:33N 37°48' W 122°19'0 0.0
2017-Mar-16 06:33N 37°48' W 122°19'0 0.0
2017-Mar-16 05:33N 37°48' W 122°19'0 0.0
2017-Mar-16 04:33N 37°48' W 122°19'0 0.0
2017-Mar-16 03:33N 37°48' W 122°19'0 0.0
2017-Mar-16 02:33N 37°48' W 122°19'0 0.0
2017-Mar-16 01:33N 37°48' W 122°19'0 0.0
2017-Mar-16 00:33N 37°48' W 122°19'0 0.0
2017-Mar-15 23:33N 37°48' W 122°19'0 0.0
2017-Mar-15 22:33N 37°48' W 122°19'0 0.0
2017-Mar-15 21:33N 37°48' W 122°19'0 0.0
2017-Mar-15 20:33N 37°48' W 122°19'0 0.0
2017-Mar-15 19:33N 37°48' W 122°19'0 0.0
2017-Mar-15 18:33N 37°48' W 122°19'1 1.2
2017-Mar-15 17:33N 37°48' W 122°17'4 3.8
2017-Mar-15 16:33N 37°45' W 122°21'1 1.2
2017-Mar-15 15:32N 37°44' W 122°20'0 0.0
2017-Mar-15 14:32N 37°44' W 122°20'0 0.0
2017-Mar-15 13:32N 37°44' W 122°20'0 0.0
2017-Mar-15 12:32N 37°44' W 122°20'0 0.1
2017-Mar-15 11:32N 37°44' W 122°20'0 0.2
2017-Mar-15 10:32N 37°44' W 122°20'0 0.1
2017-Mar-15 09:32N 37°44' W 122°20'0 0.1
2017-Mar-15 08:32N 37°44' W 122°20'0 0.0
2017-Mar-15 07:32N 37°44' W 122°20'0 0.1
2017-Mar-15 06:32N 37°44' W 122°20'0 0.1
2017-Mar-15 05:32N 37°44' W 122°20'0 0.0
2017-Mar-15 04:32N 37°44' W 122°20'0 0.2
2017-Mar-15 03:32N 37°44' W 122°20'0 0.1
2017-Mar-15 02:32N 37°44' W 122°20'0 0.1
2017-Mar-15 01:32N 37°44' W 122°20'0 0.0
2017-Mar-15 00:32N 37°44' W 122°20'0 0.0
2017-Mar-14 23:32N 37°44' W 122°20'0 0.2
2017-Mar-14 22:32N 37°44' W 122°20'0 0.2
2017-Mar-14 21:32N 37°44' W 122°20'0 0.0
2017-Mar-14 20:32N 37°44' W 122°20'0 0.0
2017-Mar-14 19:32N 37°44' W 122°20'0 0.0
2017-Mar-14 18:32N 37°44' W 122°20'0 0.4
2017-Mar-14 17:33N 37°44' W 122°21'10 9.7
2017-Mar-14 16:33N 37°47' W 122°32'1211.9
2017-Mar-14 15:33N 37°46' W 122°47'1010.4
2017-Mar-14 14:33N 37°52' W 122°58'1111.4
2017-Mar-14 13:33N 37°57' W 123°11'1211.7
2017-Mar-14 12:33N 38°06' W 123°21'1212.0
2017-Mar-14 11:33N 38°17' W 123°28'1211.9
2017-Mar-14 10:33N 38°27' W 123°36'1212.2
2017-Mar-14 09:33N 38°37' W 123°44'1212.1
2017-Mar-14 08:33N 38°48' W 123°52'3711.3
2017-Mar-14 05:18N 39°19' W 124°16'1011.4
2017-Mar-14 04:27N 39°28' W 124°23'23310.6
2017-Mar-13 06:33N 43°19' W 124°59'1010.0
2017-Mar-13 05:33N 43°29' W 125°00'1010.4
2017-Mar-13 04:34N 43°40' W 125°00'1110.5
2017-Mar-13 03:33N 43°50' W 125°00'1510.8
2017-Mar-13 02:12N 44°05' W 124°60'710.6
2017-Mar-13 01:33N 44°12' W 125°00'1110.6
2017-Mar-13 00:29N 44°23' W 125°00'1010.8
2017-Mar-12 23:33N 44°33' W 124°60'5410.4
2017-Mar-12 18:24N 45°27' W 124°60'910.4
2017-Mar-12 17:33N 45°35' W 125°00'1010.2
2017-Mar-12 16:33N 45°46' W 125°00'1110.5
2017-Mar-12 15:33N 45°56' W 125°00'1010.3
2017-Mar-12 14:33N 46°06' W 125°02'1010.3
2017-Mar-12 13:33N 46°17' W 125°04'1110.6
2017-Mar-12 12:33N 46°27' W 125°06'1010.4
2017-Mar-12 11:33N 46°37' W 125°08'1010.2
2017-Mar-12 10:33N 46°47' W 125°10'1010.2
2017-Mar-12 09:33N 46°58' W 125°12'1010.0
2017-Mar-12 08:33N 47°07' W 125°15'1010.0
2017-Mar-12 07:33N 47°17' W 125°17'4310.0
2017-Mar-12 03:17N 47°60' W 125°25'810.1
2017-Mar-12 02:31N 48°07' W 125°20'9 9.8
2017-Mar-12 01:33N 48°15' W 125°14'10 9.9
2017-Mar-12 00:33N 48°24' W 125°07'8 7.9
2017-Mar-11 23:33N 48°30' W 125°00'9 9.5
2017-Mar-11 22:33N 48°30' W 124°46'11 9.9
2017-Mar-11 21:29N 48°27' W 124°31'910.2
2017-Mar-11 20:33N 48°23' W 124°18'1110.6
2017-Mar-11 19:33N 48°19' W 124°03'1111.3
2017-Mar-11 18:33N 48°17' W 123°46'1111.2
2017-Mar-11 17:33N 48°17' W 123°29'1111.1
2017-Mar-11 16:34N 48°23' W 123°16'1818.2
2017-Mar-11 15:33N 48°42' W 123°15'1313.2
2017-Mar-11 14:33N 48°54' W 123°08'1414.2
2017-Mar-11 13:34N 49°06' W 123°19'1111.4
2017-Mar-11 12:33N 49°09' W 123°02'5 4.8
2017-Mar-11 11:32N 49°11' W 122°55'0 0.0
2017-Mar-11 10:32N 49°11' W 122°55'0 0.0
2017-Mar-11 09:32N 49°11' W 122°55'0 0.0
2017-Mar-11 08:32N 49°11' W 122°55'0 0.0
2017-Mar-11 07:32N 49°11' W 122°55'0 0.0
2017-Mar-11 06:32N 49°11' W 122°55'0 0.0
2017-Mar-11 05:32N 49°11' W 122°55'0 0.0
2017-Mar-11 04:32N 49°11' W 122°55'0 0.0
2017-Mar-11 03:32N 49°11' W 122°55'0 0.0
2017-Mar-11 02:32N 49°11' W 122°55'0 0.0
2017-Mar-11 01:32N 49°11' W 122°55'0 0.0
2017-Mar-11 00:32N 49°11' W 122°55'0 0.0
2017-Mar-10 23:32N 49°11' W 122°55'0 0.0
2017-Mar-10 22:32N 49°11' W 122°55'0 0.0
2017-Mar-10 21:32N 49°11' W 122°55'0 0.0
2017-Mar-10 20:32N 49°11' W 122°55'0 0.0
2017-Mar-10 19:32N 49°11' W 122°55'0 0.0
2017-Mar-10 18:32N 49°11' W 122°55'0 0.0
2017-Mar-10 17:32N 49°11' W 122°55'0 0.0
2017-Mar-10 16:32N 49°11' W 122°55'0 0.0
2017-Mar-10 15:32N 49°11' W 122°55'5 5.1
2017-Mar-10 14:33N 49°09' W 123°02'1111.4
2017-Mar-10 13:33N 49°06' W 123°19'8 8.3
2017-Mar-10 12:33N 48°59' W 123°13'1413.9
2017-Mar-10 11:33N 48°47' W 123°01'1616.4
2017-Mar-10 10:33N 48°33' W 123°12'1313.5
2017-Mar-10 09:33N 48°21' W 123°23'1010.2
2017-Mar-10 08:33N 48°11' W 123°24'1110.8
2017-Mar-10 07:34N 48°12' W 123°08'1716.8
2017-Mar-10 06:33N 48°09' W 122°43'1817.7
2017-Mar-10 05:34N 47°54' W 122°29'1817.9
2017-Mar-10 04:33N 47°37' W 122°24'3 2.7
2017-Mar-10 03:33N 47°35' W 122°21'0 0.0
2017-Mar-10 02:33N 47°35' W 122°21'0 0.0
2017-Mar-10 01:33N 47°35' W 122°21'0 0.0
2017-Mar-10 00:33N 47°35' W 122°21'0 0.0
2017-Mar-09 23:33N 47°35' W 122°21'0 0.0
2017-Mar-09 22:33N 47°35' W 122°21'0 0.0
2017-Mar-09 21:33N 47°35' W 122°21'0 0.0
2017-Mar-09 20:33N 47°35' W 122°21'0 0.0
2017-Mar-09 19:33N 47°35' W 122°21'0 0.0
2017-Mar-09 18:33N 47°35' W 122°21'0 0.0
2017-Mar-09 17:33N 47°35' W 122°21'0 0.0
2017-Mar-09 16:33N 47°35' W 122°21'0 0.0
2017-Mar-09 15:34N 47°35' W 122°21'0 0.0
2017-Mar-09 14:33N 47°35' W 122°21'  
Track history (hours):
 
Tides and Currents Weather Stations Pressure Air Temp Water Temp Dewpoint Dewpoint Depression Visibility Wind Speed Wind Dir Waves Ship Positions

Seaspan Chiwan

Last reported at 2017-Mar-19 14:33 UTC. Time now 2017-Mar-26 05:24 UTC.
Position N 27°36' W 115°33'.

Length 260 m; draft 10.6 m.

Type: Cargo ship. MMSI: 477014500.

Date/timePositionNaut miles runAvg speedWind from/ knotsBaromVisibWave heightAir tempDewpointWater temp
2017-Mar-19 14:33N 27°36' W 115°33'4915.4
2017-Mar-19 11:23N 28°17' W 116°05'1415.5
2017-Mar-19 10:29N 28°28' W 116°13'1515.7
2017-Mar-19 09:33N 28°40' W 116°23'1615.7
2017-Mar-19 08:33N 28°53' W 116°33'1515.6
2017-Mar-19 07:33N 29°07' W 116°40'1615.7
2017-Mar-19 06:33N 29°23' W 116°44'1515.5
2017-Mar-19 05:33N 29°38' W 116°48'1615.8
2017-Mar-19 04:33N 29°53' W 116°53'1615.9
2017-Mar-19 03:33N 30°08' W 116°57'1515.5
2017-Mar-19 02:34N 30°23' W 117°02'1615.7
2017-Mar-19 01:33N 30°39' W 117°06'3315.8
2017-Mar-18 23:26N 31°11' W 117°15'1415.6
2017-Mar-18 22:33N 31°25' W 117°19'1615.6
2017-Mar-18 21:34N 31°40' W 117°23'1615.8
2017-Mar-18 20:33N 31°55' W 117°27'1615.7
2017-Mar-18 19:33N 32°10' W 117°32'1514.9
2017-Mar-18 18:34N 32°25' W 117°36'1414.2
2017-Mar-18 17:33N 32°37' W 117°44'1515.5
2017-Mar-18 16:33N 32°51' W 117°53'1515.1
2017-Mar-18 15:33N 33°05' W 118°00'1211.7
2017-Mar-18 14:33N 33°16' W 118°05'1211.5
2017-Mar-18 13:33N 33°26' W 118°10'1211.7
2017-Mar-18 12:33N 33°37' W 118°14'7 6.5
2017-Mar-18 11:33N 33°44' W 118°15'0 0.3
2017-Mar-18 10:31N 33°44' W 118°15'0 0.0
2017-Mar-18 09:31N 33°44' W 118°15'0 0.0
2017-Mar-18 08:31N 33°44' W 118°15'0 0.0
2017-Mar-18 07:31N 33°44' W 118°15'0 0.0
2017-Mar-18 06:31N 33°44' W 118°15'0 0.0
2017-Mar-18 05:31N 33°44' W 118°15'0 0.0
2017-Mar-18 04:31N 33°44' W 118°15'0 0.0
2017-Mar-18 03:28N 33°44' W 118°15'0 0.1
2017-Mar-18 02:31N 33°44' W 118°15'0 0.0
2017-Mar-18 01:31N 33°44' W 118°15'0 0.0
2017-Mar-18 00:31N 33°44' W 118°15'0 0.0
2017-Mar-17 23:31N 33°44' W 118°15'0 0.0
2017-Mar-17 22:28N 33°44' W 118°15'0 0.0
2017-Mar-17 21:31N 33°44' W 118°15'0 0.0
2017-Mar-17 20:31N 33°44' W 118°15'0 0.4
2017-Mar-17 19:34N 33°44' W 118°15'5 5.4
2017-Mar-17 18:33N 33°39' W 118°13'9 9.1
2017-Mar-17 17:33N 33°38' W 118°24'1211.7
2017-Mar-17 16:33N 33°43' W 118°37'1111.5
2017-Mar-17 15:33N 33°49' W 118°48'1211.6
2017-Mar-17 14:33N 33°55' W 119°00'1211.5
2017-Mar-17 13:33N 34°01' W 119°13'1211.6
2017-Mar-17 12:33N 34°04' W 119°26'1211.7
2017-Mar-17 11:33N 34°08' W 119°39'1211.9
2017-Mar-17 10:33N 34°11' W 119°53'1211.6
2017-Mar-17 09:33N 34°14' W 120°07'1211.6
2017-Mar-17 08:33N 34°17' W 120°20'1211.7
2017-Mar-17 07:33N 34°20' W 120°34'1211.6
2017-Mar-17 06:33N 34°23' W 120°48'1212.0
2017-Mar-17 05:33N 34°29' W 120°60'1414.0
2017-Mar-17 04:33N 34°41' W 121°09'1414.2
2017-Mar-17 03:34N 34°53' W 121°19'1414.4
2017-Mar-17 02:34N 35°05' W 121°28'1414.4
2017-Mar-17 01:33N 35°17' W 121°38'1514.6
2017-Mar-17 00:34N 35°29' W 121°49'1414.0
2017-Mar-16 23:32N 35°41' W 121°58'1713.4
2017-Mar-16 22:16N 35°56' W 122°07'1014.4
2017-Mar-16 21:33N 36°06' W 122°12'1514.9
2017-Mar-16 20:33N 36°19' W 122°20'1514.8
2017-Mar-16 19:33N 36°33' W 122°26'1514.7
2017-Mar-16 18:33N 36°47' W 122°33'1413.8
2017-Mar-16 17:33N 37°00' W 122°39'1312.7
2017-Mar-16 16:34N 37°12' W 122°44'1312.7
2017-Mar-16 15:34N 37°25' W 122°44'1312.7
2017-Mar-16 14:34N 37°37' W 122°44'1110.7
2017-Mar-16 13:33N 37°46' W 122°36'1312.7
2017-Mar-16 12:34N 37°48' W 122°21'1 1.4
2017-Mar-16 11:33N 37°48' W 122°19'0 0.0
2017-Mar-16 10:33N 37°48' W 122°19'0 0.0
2017-Mar-16 09:33N 37°48' W 122°19'0 0.0
2017-Mar-16 08:33N 37°48' W 122°19'0 0.0
2017-Mar-16 07:33N 37°48' W 122°19'0 0.0
2017-Mar-16 06:33N 37°48' W 122°19'0 0.0
2017-Mar-16 05:33N 37°48' W 122°19'0 0.0
2017-Mar-16 04:33N 37°48' W 122°19'0 0.0
2017-Mar-16 03:33N 37°48' W 122°19'0 0.0
2017-Mar-16 02:33N 37°48' W 122°19'0 0.0
2017-Mar-16 01:33N 37°48' W 122°19'0 0.0
2017-Mar-16 00:33N 37°48' W 122°19'0 0.0
2017-Mar-15 23:33N 37°48' W 122°19'0 0.0
2017-Mar-15 22:33N 37°48' W 122°19'0 0.0
2017-Mar-15 21:33N 37°48' W 122°19'0 0.0
2017-Mar-15 20:33N 37°48' W 122°19'0 0.0
2017-Mar-15 19:33N 37°48' W 122°19'0 0.0
2017-Mar-15 18:33N 37°48' W 122°19'1 1.2
2017-Mar-15 17:33N 37°48' W 122°17'4 3.8
2017-Mar-15 16:33N 37°45' W 122°21'1 1.2
2017-Mar-15 15:32N 37°44' W 122°20'0 0.0
2017-Mar-15 14:32N 37°44' W 122°20'0 0.0
2017-Mar-15 13:32N 37°44' W 122°20'0 0.0
2017-Mar-15 12:32N 37°44' W 122°20'0 0.1
2017-Mar-15 11:32N 37°44' W 122°20'0 0.2
2017-Mar-15 10:32N 37°44' W 122°20'0 0.1
2017-Mar-15 09:32N 37°44' W 122°20'0 0.1
2017-Mar-15 08:32N 37°44' W 122°20'0 0.0
2017-Mar-15 07:32N 37°44' W 122°20'0 0.1
2017-Mar-15 06:32N 37°44' W 122°20'0 0.1
2017-Mar-15 05:32N 37°44' W 122°20'0 0.0
2017-Mar-15 04:32N 37°44' W 122°20'0 0.2
2017-Mar-15 03:32N 37°44' W 122°20'0 0.1
2017-Mar-15 02:32N 37°44' W 122°20'0 0.1
2017-Mar-15 01:32N 37°44' W 122°20'0 0.0
2017-Mar-15 00:32N 37°44' W 122°20'0 0.0
2017-Mar-14 23:32N 37°44' W 122°20'0 0.2
2017-Mar-14 22:32N 37°44' W 122°20'0 0.2
2017-Mar-14 21:32N 37°44' W 122°20'0 0.0
2017-Mar-14 20:32N 37°44' W 122°20'0 0.0
2017-Mar-14 19:32N 37°44' W 122°20'0 0.0
2017-Mar-14 18:32N 37°44' W 122°20'0 0.4
2017-Mar-14 17:33N 37°44' W 122°21'10 9.7
2017-Mar-14 16:33N 37°47' W 122°32'1211.9
2017-Mar-14 15:33N 37°46' W 122°47'1010.4
2017-Mar-14 14:33N 37°52' W 122°58'1111.4
2017-Mar-14 13:33N 37°57' W 123°11'1211.7
2017-Mar-14 12:33N 38°06' W 123°21'1212.0
2017-Mar-14 11:33N 38°17' W 123°28'1211.9
2017-Mar-14 10:33N 38°27' W 123°36'1212.2
2017-Mar-14 09:33N 38°37' W 123°44'1212.1
2017-Mar-14 08:33N 38°48' W 123°52'3711.3
2017-Mar-14 05:18N 39°19' W 124°16'1011.4
2017-Mar-14 04:27N 39°28' W 124°23'23310.6
2017-Mar-13 06:33N 43°19' W 124°59'1010.0
2017-Mar-13 05:33N 43°29' W 125°00'1010.4
2017-Mar-13 04:34N 43°40' W 125°00'1110.5
2017-Mar-13 03:33N 43°50' W 125°00'1510.8
2017-Mar-13 02:12N 44°05' W 124°60'710.6
2017-Mar-13 01:33N 44°12' W 125°00'1110.6
2017-Mar-13 00:29N 44°23' W 125°00'1010.8
2017-Mar-12 23:33N 44°33' W 124°60'5410.4
2017-Mar-12 18:24N 45°27' W 124°60'910.4
2017-Mar-12 17:33N 45°35' W 125°00'1010.2
2017-Mar-12 16:33N 45°46' W 125°00'1110.5
2017-Mar-12 15:33N 45°56' W 125°00'1010.3
2017-Mar-12 14:33N 46°06' W 125°02'1010.3
2017-Mar-12 13:33N 46°17' W 125°04'1110.6
2017-Mar-12 12:33N 46°27' W 125°06'1010.4
2017-Mar-12 11:33N 46°37' W 125°08'1010.2
2017-Mar-12 10:33N 46°47' W 125°10'1010.2
2017-Mar-12 09:33N 46°58' W 125°12'1010.0
2017-Mar-12 08:33N 47°07' W 125°15'1010.0
2017-Mar-12 07:33N 47°17' W 125°17'4310.0
2017-Mar-12 03:17N 47°60' W 125°25'810.1
2017-Mar-12 02:31N 48°07' W 125°20'9 9.8
2017-Mar-12 01:33N 48°15' W 125°14'10 9.9
2017-Mar-12 00:33N 48°24' W 125°07'8 7.9
2017-Mar-11 23:33N 48°30' W 125°00'9 9.5
2017-Mar-11 22:33N 48°30' W 124°46'11 9.9
2017-Mar-11 21:29N 48°27' W 124°31'910.2
2017-Mar-11 20:33N 48°23' W 124°18'1110.6
2017-Mar-11 19:33N 48°19' W 124°03'1111.3
2017-Mar-11 18:33N 48°17' W 123°46'1111.2
2017-Mar-11 17:33N 48°17' W 123°29'1111.1
2017-Mar-11 16:34N 48°23' W 123°16'1818.2
2017-Mar-11 15:33N 48°42' W 123°15'1313.2
2017-Mar-11 14:33N 48°54' W 123°08'1414.2
2017-Mar-11 13:34N 49°06' W 123°19'1111.4
2017-Mar-11 12:33N 49°09' W 123°02'5 4.8
2017-Mar-11 11:32N 49°11' W 122°55'0 0.0
2017-Mar-11 10:32N 49°11' W 122°55'0 0.0
2017-Mar-11 09:32N 49°11' W 122°55'0 0.0
2017-Mar-11 08:32N 49°11' W 122°55'0 0.0
2017-Mar-11 07:32N 49°11' W 122°55'0 0.0
2017-Mar-11 06:32N 49°11' W 122°55'0 0.0
2017-Mar-11 05:32N 49°11' W 122°55'0 0.0
2017-Mar-11 04:32N 49°11' W 122°55'0 0.0
2017-Mar-11 03:32N 49°11' W 122°55'0 0.0
2017-Mar-11 02:32N 49°11' W 122°55'0 0.0
2017-Mar-11 01:32N 49°11' W 122°55'0 0.0
2017-Mar-11 00:32N 49°11' W 122°55'0 0.0
2017-Mar-10 23:32N 49°11' W 122°55'0 0.0
2017-Mar-10 22:32N 49°11' W 122°55'0 0.0
2017-Mar-10 21:32N 49°11' W 122°55'0 0.0
2017-Mar-10 20:32N 49°11' W 122°55'0 0.0
2017-Mar-10 19:32N 49°11' W 122°55'0 0.0
2017-Mar-10 18:32N 49°11' W 122°55'0 0.0
2017-Mar-10 17:32N 49°11' W 122°55'0 0.0
2017-Mar-10 16:32N 49°11' W 122°55'0 0.0
2017-Mar-10 15:32N 49°11' W 122°55'5 5.1
2017-Mar-10 14:33N 49°09' W 123°02'1111.4
2017-Mar-10 13:33N 49°06' W 123°19'8 8.3
2017-Mar-10 12:33N 48°59' W 123°13'1413.9
2017-Mar-10 11:33N 48°47' W 123°01'1616.4
2017-Mar-10 10:33N 48°33' W 123°12'1313.5
2017-Mar-10 09:33N 48°21' W 123°23'1010.2
2017-Mar-10 08:33N 48°11' W 123°24'1110.8
2017-Mar-10 07:34N 48°12' W 123°08'1716.8
2017-Mar-10 06:33N 48°09' W 122°43'1817.7
2017-Mar-10 05:34N 47°54' W 122°29'1817.9
2017-Mar-10 04:33N 47°37' W 122°24'3 2.7
2017-Mar-10 03:33N 47°35' W 122°21'0 0.0
2017-Mar-10 02:33N 47°35' W 122°21'0 0.0
2017-Mar-10 01:33N 47°35' W 122°21'0 0.0
2017-Mar-10 00:33N 47°35' W 122°21'0 0.0
2017-Mar-09 23:33N 47°35' W 122°21'0 0.0
2017-Mar-09 22:33N 47°35' W 122°21'0 0.0
2017-Mar-09 21:33N 47°35' W 122°21'0 0.0
2017-Mar-09 20:33N 47°35' W 122°21'0 0.0
2017-Mar-09 19:33N 47°35' W 122°21'0 0.0
2017-Mar-09 18:33N 47°35' W 122°21'0 0.0
2017-Mar-09 17:33N 47°35' W 122°21'0 0.0
2017-Mar-09 16:33N 47°35' W 122°21'0 0.0
2017-Mar-09 15:34N 47°35' W 122°21'0 0.0
2017-Mar-09 14:33N 47°35' W 122°21'  

Dump ship's entire track history